createdAt,value
2019-02-08T00:00:45.816Z,100680.75
2019-02-08T00:03:14.703Z,100691.19
2019-02-08T00:05:43.588Z,100686.73
2019-02-08T00:08:12.451Z,100683.67
2019-02-08T00:10:41.337Z,100692.74
2019-02-08T00:13:10.246Z,100685.48
2019-02-08T00:15:39.131Z,100690.92
2019-02-08T00:18:07.998Z,100692.55
2019-02-08T00:20:36.966Z,100685.56
2019-02-08T00:23:05.825Z,100690.45
2019-02-08T00:25:34.705Z,100691.70
2019-02-08T00:28:03.663Z,100688.14
2019-02-08T00:30:32.573Z,100690.82
2019-02-08T00:33:01.434Z,100690.20
2019-02-08T00:35:30.311Z,100698.56
2019-02-08T00:37:59.186Z,100700.65
2019-02-08T00:40:28.089Z,100690.35
2019-02-08T00:42:56.976Z,100694.03
2019-02-08T00:45:27.546Z,100702.00
2019-02-08T00:47:57.685Z,100693.48
2019-02-08T00:50:26.600Z,100686.67
2019-02-08T00:52:55.476Z,100689.70
2019-02-08T00:55:24.379Z,100696.48
2019-02-08T00:57:53.262Z,100696.22
2019-02-08T01:00:22.164Z,100689.61
2019-02-08T01:02:51.070Z,100704.83
2019-02-08T01:05:19.993Z,100690.83
2019-02-08T01:07:49.127Z,100697.78
2019-02-08T01:10:23.204Z,100692.06
2019-02-08T01:12:52.109Z,100688.41
2019-02-08T01:15:21.221Z,100694.29
2019-02-08T01:17:50.107Z,100687.64
2019-02-08T01:20:19.705Z,100689.73
2019-02-08T01:22:48.606Z,100695.63
2019-02-08T01:25:21.739Z,100698.33
2019-02-08T01:27:50.890Z,100705.42
2019-02-08T01:30:21.678Z,100692.31
2019-02-08T01:32:50.583Z,100704.33
2019-02-08T01:35:19.501Z,100695.88
2019-02-08T01:37:48.442Z,100693.92
2019-02-08T01:40:19.490Z,100692.70
2019-02-08T01:42:48.397Z,100694.28
2019-02-08T01:45:19.629Z,100691.94
2019-02-08T01:47:48.443Z,100694.03
2019-02-08T01:50:24.990Z,100693.16
2019-02-08T01:52:53.888Z,100697.81
2019-02-08T01:55:22.773Z,100698.56
2019-02-08T01:57:52.107Z,100689.75
2019-02-08T02:00:23.337Z,100691.95
2019-02-08T02:02:52.221Z,100687.28
2019-02-08T02:05:21.093Z,100693.66
2019-02-08T02:07:49.997Z,100702.81
2019-02-08T02:10:24.417Z,100698.17
2019-02-08T02:12:53.326Z,100695.23
2019-02-08T02:15:22.195Z,100688.27
2019-02-08T02:17:51.102Z,100689.47
2019-02-08T02:20:21.596Z,100691.05
2019-02-08T02:22:50.480Z,100686.12
2019-02-08T02:25:19.336Z,100688.01
2019-02-08T02:27:48.220Z,100693.00
2019-02-08T02:30:20.027Z,100680.02
2019-02-08T02:32:48.914Z,100683.95
2019-02-08T02:35:17.783Z,100682.59
2019-02-08T02:37:46.661Z,100677.73
2019-02-08T02:40:15.640Z,100681.16
2019-02-08T02:42:44.537Z,100681.83
2019-02-08T02:45:19.158Z,100670.05
2019-02-08T02:47:48.080Z,100689.60
2019-02-08T02:50:16.947Z,100675.95
2019-02-08T02:52:45.829Z,100667.62
2019-02-08T02:55:15.101Z,100673.38
2019-02-08T02:57:44.022Z,100674.09
2019-02-08T03:00:27.742Z,100666.27
2019-02-08T03:02:56.633Z,100662.84
2019-02-08T03:05:25.531Z,100677.04
2019-02-08T03:07:54.418Z,100671.77
2019-02-08T03:10:23.295Z,100670.05
2019-02-08T03:12:52.207Z,100664.06
2019-02-08T03:15:21.096Z,100660.77
2019-02-08T03:17:49.963Z,100666.88
2019-02-08T03:20:18.968Z,100680.33
2019-02-08T03:22:47.852Z,100671.99
2019-02-08T03:25:18.684Z,100662.75
2019-02-08T03:27:47.799Z,100662.86
2019-02-08T03:30:18.729Z,100655.81
2019-02-08T03:32:47.610Z,100660.66
2019-02-08T03:35:21.208Z,100650.95
2019-02-08T03:37:50.116Z,100632.39
2019-02-08T03:40:21.552Z,100629.55
2019-02-08T03:42:50.412Z,100630.72
2019-02-08T03:45:19.337Z,100639.32
2019-02-08T03:47:48.220Z,100642.02
2019-02-08T03:50:17.848Z,100627.69
2019-02-08T03:52:46.761Z,100631.66
2019-02-08T03:55:17.124Z,100629.55
2019-02-08T03:57:46.016Z,100631.62
2019-02-08T04:00:20.228Z,100630.05
2019-02-08T04:02:49.102Z,100614.01
2019-02-08T04:05:17.957Z,100628.18
2019-02-08T04:07:46.855Z,100625.12
2019-02-08T04:10:15.972Z,100615.17
2019-02-08T04:12:44.846Z,100631.62
2019-02-08T04:15:15.946Z,100627.92
2019-02-08T04:17:44.854Z,100633.01
2019-02-08T04:20:15.260Z,100631.02
2019-02-08T04:22:44.149Z,100625.75
2019-02-08T04:25:13.608Z,100622.83
2019-02-08T04:27:42.477Z,100625.91
2019-02-08T04:30:23.255Z,100620.82
2019-02-08T04:32:52.115Z,100633.97
2019-02-08T04:35:20.999Z,100616.00
2019-02-08T04:37:49.878Z,100628.52
2019-02-08T04:40:19.533Z,100611.45
2019-02-08T04:42:48.434Z,100613.34
2019-02-08T04:45:17.437Z,100630.58
2019-02-08T04:47:46.307Z,100615.63
2019-02-08T04:50:17.291Z,100608.19
2019-02-08T04:52:46.212Z,100609.80
2019-02-08T04:55:15.081Z,100605.12
2019-02-08T04:57:43.950Z,100612.74
2019-02-08T05:00:16.674Z,100603.75
2019-02-08T05:02:45.543Z,100610.17
2019-02-08T05:05:14.437Z,100612.11
2019-02-08T05:07:43.316Z,100609.38
2019-02-08T05:10:12.597Z,100603.61
2019-02-08T05:12:41.481Z,100605.67
2019-02-08T05:15:10.724Z,100599.92
2019-02-08T05:17:39.622Z,100603.23
2019-02-08T05:20:09.827Z,100602.75
2019-02-08T05:22:38.719Z,100604.78
2019-02-08T05:25:07.654Z,100583.30
2019-02-08T05:27:36.591Z,100588.31
2019-02-08T05:30:09.482Z,100581.72
2019-02-08T05:32:38.407Z,100579.03
2019-02-08T05:35:07.744Z,100575.22
2019-02-08T05:37:36.668Z,100586.00
2019-02-08T05:40:07.117Z,100588.05
2019-02-08T05:42:36.026Z,100584.02
2019-02-08T05:45:06.514Z,100574.86
2019-02-08T05:47:35.507Z,100573.27
2019-02-08T05:50:05.862Z,100578.03
2019-02-08T05:52:34.773Z,100575.97
2019-02-08T05:55:03.792Z,100581.94
2019-02-08T05:57:32.717Z,100580.00
2019-02-08T06:00:01.611Z,100581.95
2019-02-08T06:02:30.521Z,100563.98
2019-02-08T06:04:59.427Z,100569.82
2019-02-08T06:07:28.305Z,100574.72
2019-02-08T06:09:57.205Z,100565.33
2019-02-08T06:12:26.079Z,100558.45
2019-02-08T06:14:55.010Z,100569.33
2019-02-08T06:17:23.878Z,100562.37
2019-02-08T06:19:52.786Z,100568.61
2019-02-08T06:22:21.674Z,100557.48
2019-02-08T06:24:50.571Z,100556.50
2019-02-08T06:27:19.488Z,100556.02
2019-02-08T06:29:48.406Z,100556.53
2019-02-08T06:32:17.304Z,100569.23
2019-02-08T06:34:46.221Z,100558.71
2019-02-08T06:37:15.078Z,100552.48
2019-02-08T06:39:43.994Z,100557.59
2019-02-08T06:42:12.859Z,100556.28
2019-02-08T06:44:41.736Z,100549.28
2019-02-08T06:47:10.636Z,100559.45
2019-02-08T06:49:39.538Z,100559.70
2019-02-08T06:52:08.454Z,100555.64
2019-02-08T06:54:37.437Z,100561.05
2019-02-08T06:57:28.189Z,100551.97
2019-02-08T07:00:14.570Z,100555.89
2019-02-08T07:02:55.475Z,100545.99
2019-02-08T07:05:38.765Z,100543.78
2019-02-08T07:08:25.312Z,100553.47
2019-02-08T07:11:11.665Z,100545.73
2019-02-08T07:13:59.680Z,100550.25
2019-02-08T07:16:46.234Z,100546.72
2019-02-08T07:19:34.242Z,100552.33
2019-02-08T07:22:31.224Z,100549.64
2019-02-08T07:25:18.288Z,100557.95
2019-02-08T07:27:53.385Z,100549.27
2019-02-08T07:30:43.336Z,100541.09
2019-02-08T07:33:33.844Z,100551.59
2019-02-08T07:36:20.716Z,100545.36
2019-02-08T07:39:03.165Z,100551.59
2019-02-08T07:41:54.928Z,100552.30
2019-02-08T07:44:45.675Z,100557.09
2019-02-08T07:47:20.308Z,100549.88
2019-02-08T07:50:17.328Z,100555.01
2019-02-08T07:53:12.405Z,100562.11
2019-02-08T07:55:53.926Z,100555.45
2019-02-08T07:58:45.752Z,100556.13
2019-02-08T08:01:23.905Z,100542.97
2019-02-08T08:04:10.741Z,100545.19
2019-02-08T08:07:02.327Z,100541.76
2019-02-08T08:09:53.200Z,100547.90
2019-02-08T08:12:29.726Z,100546.05
2019-02-08T08:15:15.958Z,100551.19
2019-02-08T08:17:53.614Z,100541.61
2019-02-08T08:20:45.788Z,100555.01
2019-02-08T08:23:36.940Z,100537.86
2019-02-08T08:26:13.855Z,100535.14
2019-02-08T08:29:01.385Z,100542.15
2019-02-08T08:31:41.111Z,100537.73
2019-02-08T08:34:14.882Z,100524.53
2019-02-08T08:37:21.230Z,100537.81
2019-02-08T08:40:14.412Z,100529.96
2019-02-08T08:43:24.591Z,100527.42
2019-02-08T08:46:18.231Z,100515.27
2019-02-08T08:49:37.987Z,100509.72
2019-02-08T08:52:50.698Z,100517.95
2019-02-08T08:55:55.822Z,100513.06
2019-02-08T08:59:18.732Z,100529.08
2019-02-08T09:02:14.491Z,100498.80
2019-02-08T09:05:06.153Z,100503.01
2019-02-08T09:08:29.175Z,100501.99
2019-02-08T09:11:39.070Z,100494.19
2019-02-08T09:14:44.211Z,100500.19
2019-02-08T09:17:54.714Z,100503.95
2019-02-08T09:21:01.040Z,100517.36
2019-02-08T09:23:56.665Z,100491.50
2019-02-08T09:26:55.874Z,100502.20
2019-02-08T09:30:14.832Z,100484.06
2019-02-08T09:33:08.450Z,100484.46
2019-02-08T09:36:01.474Z,100480.92
2019-02-08T09:38:58.636Z,100469.75
2019-02-08T09:42:08.876Z,100475.38
2019-02-08T09:45:11.860Z,100460.80
2019-02-08T09:48:11.458Z,100468.59
2019-02-08T09:51:06.603Z,100456.63
2019-02-08T09:54:02.202Z,100469.57
2019-02-08T09:57:07.254Z,100478.08
2019-02-08T10:00:06.040Z,100463.61
2019-02-08T10:02:58.674Z,100462.55
2019-02-08T10:06:24.622Z,100457.97
2019-02-08T10:09:37.809Z,100453.01
2019-02-08T10:12:43.287Z,100459.56
2019-02-08T10:15:46.602Z,100468.89
2019-02-08T10:18:43.741Z,100456.33
2019-02-08T10:21:41.498Z,100454.18
2019-02-08T10:24:55.128Z,100452.39
2019-02-08T10:28:17.954Z,100439.53
2019-02-08T10:31:25.704Z,100451.14
2019-02-08T10:34:32.809Z,100453.39
2019-02-08T10:37:46.478Z,100439.48
2019-02-08T10:40:54.162Z,100437.09
2019-02-08T10:44:10.934Z,100443.45
2019-02-08T10:47:27.651Z,100437.50
2019-02-08T10:50:46.375Z,100433.64
2019-02-08T10:53:54.003Z,100419.89
2019-02-08T10:57:20.056Z,100402.95
2019-02-08T11:00:48.574Z,100405.12
2019-02-08T11:04:03.378Z,100408.76
2019-02-08T11:06:59.930Z,100410.47
2019-02-08T11:09:52.794Z,100391.67
2019-02-08T11:13:08.173Z,100402.30
2019-02-08T11:16:14.784Z,100395.84
2019-02-08T11:19:18.759Z,100393.55
2019-02-08T11:21:51.448Z,100397.75
2019-02-08T11:24:35.641Z,100383.99
2019-02-08T11:27:10.811Z,100381.06
2019-02-08T11:29:55.739Z,100384.09
2019-02-08T11:32:43.010Z,100381.25
2019-02-08T11:35:05.763Z,100359.95
2019-02-08T11:37:46.376Z,100356.61
2019-02-08T11:40:19.837Z,100354.39
2019-02-08T11:43:00.889Z,100356.88
2019-02-08T11:45:29.806Z,100343.11
2019-02-08T11:48:07.119Z,100349.61
2019-02-08T11:50:41.180Z,100319.80
2019-02-08T11:53:14.780Z,100336.48
2019-02-08T11:55:43.848Z,100332.42
2019-02-08T11:58:18.122Z,100330.77
2019-02-08T12:00:48.806Z,100331.70
2019-02-08T12:03:28.156Z,100304.38
2019-02-08T12:06:02.484Z,100313.83
2019-02-08T12:08:33.907Z,100307.22
2019-02-08T12:11:12.895Z,100305.58
2019-02-08T12:13:47.768Z,100293.29
2019-02-08T12:16:25.910Z,100301.89
2019-02-08T12:19:04.244Z,100289.43
2019-02-08T12:21:33.050Z,100289.43
2019-02-08T12:24:09.195Z,100282.04
2019-02-08T12:26:38.694Z,100283.09
2019-02-08T12:29:07.753Z,100283.33
2019-02-08T12:31:45.488Z,100275.71
2019-02-08T12:34:17.324Z,100257.75
2019-02-08T12:36:48.098Z,100257.77
2019-02-08T12:39:29.096Z,100248.17
2019-02-08T12:42:02.616Z,100255.91
2019-02-08T12:44:34.259Z,100255.20
2019-02-08T12:50:05.957Z,100246.87
2019-02-08T12:52:36.573Z,100225.49
2019-02-08T12:55:10.351Z,100243.35
2019-02-08T12:57:52.155Z,100226.27
2019-02-08T13:00:27.097Z,100226.91
2019-02-08T13:02:59.174Z,100204.18
2019-02-08T13:05:28.236Z,100210.37
2019-02-08T13:07:57.642Z,100213.19
2019-02-08T13:10:40.341Z,100192.66
2019-02-08T13:13:11.386Z,100191.98
2019-02-08T13:15:42.562Z,100186.67
2019-02-08T13:18:11.603Z,100179.73
2019-02-08T13:20:40.803Z,100166.75
2019-02-08T13:23:17.203Z,100162.41
2019-02-08T13:25:46.291Z,100168.77
2019-02-08T13:28:19.901Z,100155.95
2019-02-08T13:30:50.104Z,100165.47
2019-02-08T13:33:18.979Z,100149.47
2019-02-08T13:35:48.065Z,100150.09
2019-02-08T13:38:21.677Z,100165.61
2019-02-08T13:40:52.090Z,100126.95
2019-02-08T13:43:21.389Z,100141.16
2019-02-08T13:45:53.369Z,100127.70
2019-02-08T13:48:23.275Z,100127.41
2019-02-08T13:51:02.540Z,100130.11
2019-02-08T13:53:50.106Z,100145.81
2019-02-08T13:56:19.346Z,100126.55
2019-02-08T13:58:48.471Z,100131.05
2019-02-08T14:01:20.338Z,100133.25
2019-02-08T14:03:48.681Z,100133.91
2019-02-08T14:06:19.835Z,100120.44
2019-02-08T14:08:53.326Z,100126.14
2019-02-08T14:11:22.198Z,100135.42
2019-02-08T14:13:51.504Z,100113.97
2019-02-08T14:16:20.463Z,100121.55
2019-02-08T14:18:49.491Z,100098.65
2019-02-08T14:21:19.332Z,100110.47
2019-02-08T14:23:48.404Z,100129.71
2019-02-08T14:26:32.739Z,100090.17
2019-02-08T14:29:02.598Z,100092.94
2019-02-08T14:31:31.763Z,100095.14
2019-02-08T14:34:18.553Z,100108.11
2019-02-08T14:36:47.594Z,100097.09
2019-02-08T14:39:19.102Z,100101.77
2019-02-08T14:41:50.977Z,100106.06
2019-02-08T14:44:20.161Z,100086.77
2019-02-08T14:46:49.106Z,100110.81
2019-02-08T14:49:18.783Z,100080.64
2019-02-08T14:51:53.593Z,100069.83
2019-02-08T14:54:25.158Z,100075.36
2019-02-08T14:57:02.897Z,100064.40
2019-02-08T14:59:32.429Z,100054.26
2019-02-08T15:02:02.217Z,100047.74
2019-02-08T15:04:39.238Z,100047.63
2019-02-08T15:07:09.393Z,100040.58
2019-02-08T15:09:40.214Z,100040.79
2019-02-08T15:12:11.359Z,100036.70
2019-02-08T15:14:48.155Z,100024.27
2019-02-08T15:17:22.257Z,100054.22
2019-02-08T15:19:57.926Z,100030.45
2019-02-08T15:22:25.796Z,100032.31
2019-02-08T15:24:55.052Z,100017.30
2019-02-08T15:27:24.582Z,100007.96
2019-02-08T15:29:58.104Z,100019.78
2019-02-08T15:32:32.226Z,100009.11
2019-02-08T15:35:03.502Z,99992.75
2019-02-08T15:37:32.773Z,99992.03
2019-02-08T15:40:06.372Z,99990.66
2019-02-08T15:42:45.139Z,100015.00
2019-02-08T15:45:38.646Z,99981.34
2019-02-08T15:48:11.787Z,99992.11
2019-02-08T15:50:41.153Z,99987.83
2019-02-08T15:53:12.492Z,100009.16
2019-02-08T15:56:16.601Z,99992.38
2019-02-08T15:58:56.176Z,99964.33
2019-02-08T16:01:26.892Z,99953.86
2019-02-08T16:03:58.706Z,99945.27
2019-02-08T16:06:27.820Z,99962.11
2019-02-08T16:09:02.323Z,99971.80
2019-02-08T16:11:31.416Z,99955.59
2019-02-08T16:14:20.929Z,99963.11
2019-02-08T16:16:49.937Z,99954.58
2019-02-08T16:19:48.089Z,99935.32
2019-02-08T16:22:19.883Z,99939.79
2019-02-08T16:24:51.754Z,99935.59
2019-02-08T16:27:20.850Z,99954.48
2019-02-08T16:29:49.810Z,99926.24
2019-02-08T16:32:24.276Z,99952.30
2019-02-08T16:35:02.547Z,99935.56
2019-02-08T16:37:33.890Z,99924.60
2019-02-08T16:40:07.272Z,99939.63
2019-02-08T16:42:36.451Z,99933.02
2019-02-08T16:45:17.401Z,99922.13
2019-02-08T16:47:40.089Z,99920.28
2019-02-08T16:50:11.451Z,99894.84
2019-02-08T16:52:40.783Z,99900.80
2019-02-08T16:55:22.195Z,99907.90
2019-02-08T16:57:52.124Z,99920.34
2019-02-08T17:01:08.604Z,99897.25
2019-02-08T17:03:37.651Z,99919.73
2019-02-08T17:06:07.256Z,99892.24
2019-02-08T17:08:36.178Z,99874.86
2019-02-08T17:11:11.409Z,99873.16
2019-02-08T17:13:52.913Z,99882.56
2019-02-08T17:16:31.649Z,99871.90
2019-02-08T17:19:00.732Z,99854.27
2019-02-08T17:21:56.218Z,99890.41
2019-02-08T17:24:26.530Z,99854.67
2019-02-08T17:26:55.949Z,99867.16
2019-02-08T17:29:42.999Z,99856.13
2019-02-08T17:32:15.504Z,99849.02
2019-02-08T17:34:46.223Z,99854.09
2019-02-08T17:37:21.099Z,99823.55
2019-02-08T17:39:51.294Z,99819.88
2019-02-08T17:42:22.469Z,99834.37
2019-02-08T17:45:00.192Z,99838.09
2019-02-08T17:47:41.555Z,99842.06
2019-02-08T17:50:24.154Z,99812.73
2019-02-08T17:53:12.227Z,99815.70
2019-02-08T17:55:59.203Z,99813.11
2019-02-08T17:58:28.327Z,99798.05
2019-02-08T18:01:00.653Z,99837.84
2019-02-08T18:03:31.087Z,99774.82
2019-02-08T18:05:59.221Z,99800.83
2019-02-08T18:08:28.206Z,99783.94
2019-02-08T18:10:59.514Z,99766.90
2019-02-08T18:13:29.908Z,99768.77
2019-02-08T18:16:09.300Z,99779.69
2019-02-08T18:18:40.469Z,99792.44
2019-02-08T18:21:11.168Z,99803.30
2019-02-08T18:23:43.155Z,99766.63
2019-02-08T18:26:14.754Z,99755.11
2019-02-08T18:28:43.750Z,99768.52
2019-02-08T18:31:21.608Z,99737.11
2019-02-08T18:33:55.023Z,99736.70
2019-02-08T18:36:26.626Z,99729.88
2019-02-08T18:39:24.985Z,99752.17
2019-02-08T18:41:39.598Z,99731.80
2019-02-08T18:44:08.672Z,99736.64
2019-02-08T18:46:37.800Z,99710.94
2019-02-08T18:49:12.550Z,99711.44
2019-02-08T18:51:41.657Z,99718.27
2019-02-08T18:54:13.318Z,99700.33
2019-02-08T18:56:42.341Z,99688.50
2019-02-08T18:59:13.632Z,99682.05
2019-02-08T19:01:47.127Z,99672.98
2019-02-08T19:04:16.129Z,99677.28
2019-02-08T19:06:47.755Z,99665.58
2019-02-08T19:09:16.808Z,99665.39
2019-02-08T19:11:48.947Z,99644.18
2019-02-08T19:14:22.205Z,99666.30
2019-02-08T19:16:58.210Z,99651.08
2019-02-08T19:19:27.218Z,99651.16
2019-02-08T19:21:56.195Z,99666.19
2019-02-08T19:24:25.669Z,99657.05
2019-02-08T19:26:54.923Z,99636.94
2019-02-08T19:29:30.021Z,99643.33
2019-02-08T19:32:04.963Z,99639.75
2019-02-08T19:34:33.958Z,99641.32
2019-02-08T19:37:08.536Z,99648.05
2019-02-08T19:39:40.490Z,99629.14
2019-02-08T19:42:09.513Z,99632.03
2019-02-08T19:44:39.805Z,99642.64
2019-02-08T19:47:11.848Z,99626.39
2019-02-08T19:49:40.968Z,99631.64
2019-02-08T19:52:09.957Z,99629.05
2019-02-08T19:54:39.931Z,99606.45
2019-02-08T19:57:09.479Z,99613.34
2019-02-08T19:59:57.739Z,99603.53
2019-02-08T20:02:42.536Z,99595.19
2019-02-08T20:05:14.515Z,99600.38
2019-02-08T20:07:58.328Z,99589.00
2019-02-08T20:10:37.831Z,99582.36
2019-02-08T20:16:22.053Z,99573.72
2019-02-08T20:18:51.141Z,99605.06
2019-02-08T20:21:35.033Z,99570.29
2019-02-08T20:24:04.136Z,99574.95
2019-02-08T20:26:35.794Z,99547.28
2019-02-08T20:29:08.251Z,99561.75
2019-02-08T20:31:58.491Z,99561.80
2019-02-08T20:34:38.708Z,99550.25
2019-02-08T20:37:08.018Z,99565.00
2019-02-08T20:39:39.082Z,99554.45
2019-02-08T20:42:19.157Z,99551.26
2019-02-08T20:44:48.540Z,99571.01
2019-02-08T20:47:23.782Z,99549.05
2019-02-08T20:49:55.508Z,99530.96
2019-02-08T20:56:02.608Z,99550.17
2019-02-08T21:01:57.309Z,99520.31
2019-02-08T21:04:48.892Z,99520.36
2019-02-08T21:07:17.902Z,99514.10
2019-02-08T21:09:57.871Z,99510.86
2019-02-08T21:14:01.550Z,99511.70
2019-02-08T21:16:17.874Z,99511.02
2019-02-08T21:19:22.166Z,99521.51
2019-02-08T21:21:57.239Z,99518.50
2019-02-08T21:25:00.123Z,99512.86
2019-02-08T21:30:43.213Z,99511.63
2019-02-08T21:33:32.226Z,99509.09
2019-02-08T21:36:05.986Z,99515.30
2019-02-08T21:36:43.838Z,99523.63
2019-02-08T21:38:35.646Z,99488.98
2019-02-08T21:41:31.787Z,99506.80
2019-02-08T21:44:12.232Z,99513.80
2019-02-08T21:46:52.791Z,99510.16
2019-02-08T21:49:28.840Z,99500.10
2019-02-08T21:51:59.408Z,99500.45
2019-02-08T21:54:33.227Z,99504.73
2019-02-08T21:57:12.693Z,99491.11
2019-02-08T21:59:41.747Z,99517.38
2019-02-08T22:02:10.778Z,99511.70
2019-02-08T22:04:47.173Z,99473.72
2019-02-08T22:07:19.673Z,99481.63
2019-02-08T22:09:58.789Z,99486.05
2019-02-08T22:12:38.298Z,99465.11
2019-02-08T22:15:11.819Z,99468.66
2019-02-08T22:18:02.844Z,99448.53
2019-02-08T22:20:33.876Z,99465.39
2019-02-08T22:23:03.758Z,99483.94
2019-02-08T22:25:36.516Z,99463.03
2019-02-08T22:28:05.626Z,99487.48
2019-02-08T22:30:54.909Z,99469.78
2019-02-08T22:33:35.046Z,99453.44
2019-02-08T22:36:10.176Z,99470.02
2019-02-08T22:38:39.295Z,99473.91
2019-02-08T22:41:10.419Z,99460.18
2019-02-08T22:43:44.490Z,99468.28
2019-02-08T22:46:13.486Z,99474.64
2019-02-08T22:48:46.022Z,99457.75
2019-02-08T22:51:22.359Z,99460.60
2019-02-08T22:53:51.435Z,99459.77
2019-02-08T22:56:26.324Z,99445.60
2019-02-08T22:59:13.057Z,99460.56
2019-02-08T23:01:58.605Z,99444.76
2019-02-08T23:04:25.287Z,99425.98
2019-02-08T23:06:55.144Z,99420.92
2019-02-08T23:09:28.380Z,99414.52
2019-02-08T23:11:57.660Z,99417.92
2019-02-08T23:14:40.182Z,99400.34
2019-02-08T23:17:15.630Z,99419.08
2019-02-08T23:19:44.579Z,99403.45
2019-02-08T23:22:13.366Z,99384.21
2019-02-08T23:24:42.235Z,99389.39
2019-02-08T23:27:11.154Z,99394.78
2019-02-08T23:29:39.957Z,99400.75
2019-02-08T23:32:08.819Z,99397.36
2019-02-08T23:34:37.688Z,99391.84
2019-02-08T23:37:06.577Z,99369.58
2019-02-08T23:39:35.414Z,99381.17
2019-02-08T23:42:04.370Z,99376.77
2019-02-08T23:44:33.192Z,99362.74
2019-02-08T23:47:02.059Z,99351.34
2019-02-08T23:49:30.920Z,99363.97
2019-02-08T23:51:59.773Z,99374.42
2019-02-08T23:54:28.622Z,99373.28
2019-02-08T23:56:57.447Z,99358.59
2019-02-08T23:59:26.307Z,99383.02
